Formoso, Brazil
Current Conditions -  °F | °C
As of 7:00 PM on Monday 22 Dec 2014 (Local Time) from SBGW Reporting Station
Light Rain Light Rain  
Wind Chill: 73°   Ceiling: 1500
Heat Index: 73°   Visibility: 6mi
Dew Point: 68°   Wind: 3mph
Humidity: 83%   Direction: 200°SSW
Pressure: 29.91"   Gusts: NA
Location:  22.63°S, 44.52°W
Report Text: SBGW 222100Z 20003KT 170V270 9000 4000SW -RA SCT010 BKN015 BKN020 23/20 Q1013 RETS
Loading
Personal Weather Stations






























Interactive Weather Map New forecast layout! Learn more

10-Day Weather Forecast

Advertisements
Track Severe Weather on mobile